KTCC

Tucumcari Municipal Airport

Tucumcari, New Mexico, USA
METAR KTCC 100553Z AUTO 33005KT 10SM CLR M04/M09 A3035 RMK AO2 SLP286 T10391094 10061 21044 50003
Observed Flight Rules
Dec-10 @ 05:53 UTC (55 minutes ago) Visual Flight Rules
Wind Visibility Clouds
330° at 5 knots 10 miles
  • Clear skies
Temperatures Readings
Current -4°C / 25°F
Dewpoint -9°C / 16°F
Humidity 69%
Altimeter 30.35" Hg
Pressure 1028.6 hPa
Elevation 1235
METAR KTCC 100553Z AUTO 33005KT 10SM CLR M04/M09 A3035 RMK AO2 SLP286 T10391094 10061 21044 50003
Observed Flight Rules
Dec-10 @ 05:53 UTC
(55 minutes ago)
VFR
Wind Visibility
330° at 5 knots 10 miles
Clouds
  • Clear skies
Temperature Dewpoint
-4°C / 25°F -9°C / 16°F
Humidity Altimeter Pressure
69% 30.35" Hg 1028.6 hPa